Terminal Aerodrome Forecast
Issued by NWS

Home | Current Version | Previous Version | Text Only | Print | Product List | Glossary On
Versions: 1 2 3 4 5 6 7 8 9 10 11 12 13 14 15 16 17 18 19 20 21 22 23 24 25 26 27 28 29 30
000
FTAK31 PAFA 290529
TAFATA
TAF
PATA 290529Z 2906/3006 20006KT 3SM -RA BR FEW005 BKN015 OVC035
     FM291500 28005KT 4SM BR OVC025
     FM291800 27006KT P6SM OVC050
     FM292100 28007KT P6SM BKN250=

USA.gov is the U.S. government's official web portal to all federal, state and local government web resources and services.